createdAt,value
2023-04-23T00:01:06.846Z,53.24
2023-04-23T00:03:34.385Z,52.91
2023-04-23T00:06:05.695Z,53.08
2023-04-23T00:08:32.943Z,52.77
2023-04-23T00:10:59.733Z,52.93
2023-04-23T00:13:26.486Z,53.19
2023-04-23T00:15:53.400Z,53.29
2023-04-23T00:18:20.653Z,53.87
2023-04-23T00:20:47.070Z,53.55
2023-04-23T00:23:13.500Z,53.31
2023-04-23T00:25:39.997Z,53.51
2023-04-23T00:28:06.441Z,53.60
2023-04-23T00:30:33.620Z,53.79
2023-04-23T00:33:00.123Z,53.84
2023-04-23T00:35:26.856Z,53.79
2023-04-23T00:37:53.304Z,54.03
2023-04-23T00:40:21.140Z,54.06
2023-04-23T00:42:49.183Z,54.17
2023-04-23T00:45:16.119Z,54.83
2023-04-23T00:47:43.363Z,54.75
2023-04-23T00:50:09.861Z,55.16
2023-04-23T00:52:39.073Z,56.22
2023-04-23T00:55:05.952Z,57.66
2023-04-23T00:57:33.308Z,60.67
2023-04-23T01:00:00.461Z,60.55
2023-04-23T01:02:28.540Z,62.00
2023-04-23T01:04:55.916Z,63.80
2023-04-23T01:07:22.830Z,64.94
2023-04-23T01:09:50.515Z,66.24
2023-04-23T01:12:16.960Z,69.57
2023-04-23T01:14:43.942Z,67.79
2023-04-23T01:17:12.172Z,67.05
2023-04-23T01:19:39.350Z,68.23
2023-04-23T01:22:14.255Z,68.40
2023-04-23T01:24:42.687Z,68.92
2023-04-23T01:27:10.307Z,68.72
2023-04-23T01:29:38.418Z,67.94
2023-04-23T01:32:05.591Z,68.33
2023-04-23T01:34:32.754Z,68.13
2023-04-23T01:36:59.433Z,68.96
2023-04-23T01:39:26.262Z,68.31
2023-04-23T01:41:53.329Z,68.42
2023-04-23T01:44:19.755Z,68.89
2023-04-23T01:46:46.813Z,68.89
2023-04-23T01:49:14.459Z,70.00
2023-04-23T01:51:40.872Z,71.04
2023-04-23T01:54:07.284Z,71.63
2023-04-23T01:56:35.591Z,71.54
2023-04-23T01:59:02.505Z,71.85
2023-04-23T02:01:45.287Z,73.41
2023-04-23T02:04:13.362Z,73.37
2023-04-23T02:06:41.155Z,74.12
2023-04-23T02:09:08.100Z,73.88
2023-04-23T02:11:34.595Z,75.78
2023-04-23T02:14:01.978Z,74.94
2023-04-23T02:16:29.113Z,75.67
2023-04-23T02:18:55.874Z,78.39
2023-04-23T02:21:24.374Z,77.83
2023-04-23T02:23:51.387Z,77.18
2023-04-23T02:26:18.805Z,77.57
2023-04-23T02:28:46.163Z,79.63
2023-04-23T02:31:12.811Z,80.01
2023-04-23T02:33:39.286Z,80.36
2023-04-23T02:36:06.018Z,79.75
2023-04-23T02:38:32.560Z,81.41
2023-04-23T02:40:59.095Z,79.66
2023-04-23T02:43:25.539Z,81.06
2023-04-23T02:45:51.930Z,80.03
2023-04-23T02:48:18.617Z,80.42
2023-04-23T02:50:45.039Z,80.86
2023-04-23T02:53:11.504Z,79.90
2023-04-23T02:55:37.980Z,79.24
2023-04-23T02:58:04.484Z,81.20
2023-04-23T03:00:33.202Z,80.28
2023-04-23T03:02:59.779Z,80.33
2023-04-23T03:05:26.334Z,79.57
2023-04-23T03:07:52.779Z,79.67
2023-04-23T03:10:19.310Z,81.10
2023-04-23T03:12:45.776Z,81.88
2023-04-23T03:15:12.650Z,80.83
2023-04-23T03:17:39.362Z,81.63
2023-04-23T03:20:08.704Z,81.42
2023-04-23T03:22:36.078Z,81.56
2023-04-23T03:25:03.866Z,82.68
2023-04-23T03:27:30.332Z,82.53
2023-04-23T03:29:56.911Z,83.99
2023-04-23T03:32:23.469Z,83.05
2023-04-23T03:34:50.027Z,81.84
2023-04-23T03:37:16.776Z,82.47
2023-04-23T03:39:43.278Z,83.55
2023-04-23T03:42:11.114Z,83.74
2023-04-23T03:44:38.695Z,83.14
2023-04-23T03:47:05.717Z,81.51
2023-04-23T03:49:32.572Z,81.37
2023-04-23T03:51:59.052Z,81.85
2023-04-23T03:54:26.538Z,83.04
2023-04-23T03:57:12.100Z,83.29
2023-04-23T03:59:49.277Z,83.53
2023-04-23T04:02:15.848Z,85.49
2023-04-23T04:04:46.221Z,86.43
2023-04-23T04:07:13.123Z,87.24
2023-04-23T04:09:39.749Z,87.53
2023-04-23T04:12:06.311Z,87.78
2023-04-23T04:14:33.022Z,88.66
2023-04-23T04:16:59.432Z,88.95
2023-04-23T04:19:25.913Z,90.07
2023-04-23T04:21:52.360Z,89.75
2023-04-23T04:24:18.753Z,90.72
2023-04-23T04:26:45.938Z,91.55
2023-04-23T04:29:12.612Z,91.42
2023-04-23T04:31:39.188Z,93.31
2023-04-23T04:34:07.206Z,92.94
2023-04-23T04:36:35.135Z,94.27
2023-04-23T04:39:03.384Z,93.77
2023-04-23T04:41:29.870Z,95.31
2023-04-23T04:43:56.747Z,96.33
2023-04-23T04:46:23.267Z,95.53
2023-04-23T04:48:50.018Z,96.21
2023-04-23T04:51:16.450Z,97.81
2023-04-23T04:53:42.899Z,100.00
2023-04-23T04:56:09.328Z,100.00
2023-04-23T04:58:36.367Z,100.00
2023-04-23T05:01:02.982Z,97.93
2023-04-23T05:03:29.614Z,98.56
2023-04-23T05:05:56.457Z,100.00
2023-04-23T05:08:22.952Z,100.00
2023-04-23T05:10:50.441Z,100.00
2023-04-23T05:13:17.659Z,100.00
2023-04-23T05:15:45.529Z,100.00
2023-04-23T05:18:11.969Z,100.00
2023-04-23T05:20:38.486Z,100.00
2023-04-23T05:23:04.914Z,100.00
2023-04-23T05:25:32.029Z,100.00
2023-04-23T05:27:58.467Z,100.00
2023-04-23T05:30:24.947Z,100.00
2023-04-23T05:32:51.428Z,100.00
2023-04-23T05:35:17.895Z,100.00
2023-04-23T05:37:44.304Z,100.00
2023-04-23T05:40:10.994Z,100.00
2023-04-23T05:42:37.438Z,100.00
2023-04-23T05:45:06.626Z,100.00
2023-04-23T05:47:34.470Z,100.00
2023-04-23T05:50:01.640Z,100.00
2023-04-23T05:52:31.343Z,100.00
2023-04-23T05:54:57.802Z,100.00
2023-04-23T05:57:24.234Z,100.00
2023-04-23T05:59:50.667Z,100.00
2023-04-23T06:02:17.216Z,100.00
2023-04-23T06:04:44.057Z,100.00
2023-04-23T06:07:11.382Z,100.00
2023-04-23T06:09:37.830Z,100.00
2023-04-23T06:12:04.318Z,100.00
2023-04-23T06:14:30.734Z,100.00
2023-04-23T06:16:57.156Z,100.00
2023-04-23T06:19:26.470Z,100.00
2023-04-23T06:21:52.913Z,100.00
2023-04-23T06:24:19.321Z,100.00
2023-04-23T06:26:46.122Z,100.00
2023-04-23T06:29:16.505Z,100.00
2023-04-23T06:31:51.094Z,100.00
2023-04-23T06:34:17.619Z,100.00
2023-04-23T06:36:44.092Z,100.00
2023-04-23T06:39:10.523Z,100.00
2023-04-23T06:41:36.948Z,100.00
2023-04-23T06:44:12.025Z,100.00
2023-04-23T06:46:49.509Z,100.00
2023-04-23T06:49:16.003Z,100.00
2023-04-23T06:51:42.468Z,100.00
2023-04-23T06:54:08.884Z,100.00
2023-04-23T06:56:35.380Z,100.00
2023-04-23T06:59:01.937Z,100.00
2023-04-23T07:01:29.488Z,100.00
2023-04-23T07:03:56.045Z,100.00
2023-04-23T07:06:22.556Z,100.00
2023-04-23T07:08:49.158Z,100.00
2023-04-23T07:11:15.835Z,100.00
2023-04-23T07:13:42.416Z,100.00
2023-04-23T07:16:08.890Z,100.00
2023-04-23T07:18:35.342Z,100.00
2023-04-23T07:21:02.229Z,100.00
2023-04-23T07:23:28.703Z,100.00
2023-04-23T07:25:55.143Z,100.00
2023-04-23T07:28:21.577Z,100.00
2023-04-23T07:30:48.175Z,100.00
2023-04-23T07:33:14.697Z,100.00
2023-04-23T07:35:41.120Z,100.00
2023-04-23T07:38:07.638Z,100.00
2023-04-23T07:40:34.066Z,100.00
2023-04-23T07:43:01.057Z,100.00
2023-04-23T07:45:27.507Z,100.00
2023-04-23T07:47:53.917Z,100.00
2023-04-23T07:50:20.666Z,100.00
2023-04-23T07:52:47.105Z,100.00
2023-04-23T07:55:13.560Z,100.00
2023-04-23T07:57:39.989Z,100.00
2023-04-23T08:00:09.367Z,100.00
2023-04-23T08:02:38.668Z,100.00
2023-04-23T08:05:05.622Z,100.00
2023-04-23T08:07:32.235Z,100.00
2023-04-23T08:10:02.857Z,100.00
2023-04-23T08:12:30.149Z,100.00
2023-04-23T08:14:56.625Z,100.00
2023-04-23T08:17:29.222Z,100.00
2023-04-23T08:19:55.681Z,100.00
2023-04-23T08:22:22.312Z,100.00
2023-04-23T08:24:48.816Z,100.00
2023-04-23T08:27:15.228Z,100.00
2023-04-23T08:29:41.884Z,100.00
2023-04-23T08:32:08.550Z,100.00
2023-04-23T08:34:35.868Z,100.00
2023-04-23T08:37:02.354Z,100.00
2023-04-23T08:39:30.517Z,100.00
2023-04-23T08:42:03.533Z,100.00
2023-04-23T08:44:31.343Z,100.00
2023-04-23T08:46:58.326Z,100.00
2023-04-23T08:49:29.452Z,100.00
2023-04-23T08:51:58.608Z,100.00
2023-04-23T08:54:26.982Z,100.00
2023-04-23T08:57:00.810Z,100.00
2023-04-23T08:59:30.690Z,100.00
2023-04-23T09:01:57.551Z,100.00
2023-04-23T09:04:25.563Z,100.00
2023-04-23T09:06:52.441Z,100.00
2023-04-23T09:09:23.575Z,100.00
2023-04-23T09:11:51.273Z,100.00
2023-04-23T09:14:19.743Z,100.00
2023-04-23T09:16:46.237Z,100.00
2023-04-23T09:19:13.256Z,100.00
2023-04-23T09:21:42.566Z,100.00
2023-04-23T09:24:13.126Z,100.00
2023-04-23T09:26:47.027Z,100.00
2023-04-23T09:29:19.240Z,100.00
2023-04-23T09:31:47.931Z,100.00
2023-04-23T09:34:21.790Z,100.00
2023-04-23T09:36:52.764Z,100.00
2023-04-23T09:39:21.627Z,100.00
2023-04-23T09:41:48.607Z,100.00
2023-04-23T09:44:19.653Z,100.00
2023-04-23T09:46:46.059Z,100.00
2023-04-23T09:49:13.294Z,100.00
2023-04-23T09:51:41.603Z,100.00
2023-04-23T09:54:13.376Z,100.00
2023-04-23T09:56:41.475Z,100.00
2023-04-23T10:02:02.797Z,100.00
2023-04-23T10:04:29.631Z,100.00
2023-04-23T10:07:17.255Z,100.00
2023-04-23T10:09:46.352Z,100.00
2023-04-23T10:12:29.605Z,100.00
2023-04-23T10:15:00.277Z,100.00
2023-04-23T10:17:27.040Z,100.00
2023-04-23T10:19:55.598Z,100.00
2023-04-23T10:22:23.045Z,100.00
2023-04-23T10:24:55.873Z,100.00
2023-04-23T10:27:44.562Z,100.00
2023-04-23T10:30:16.232Z,100.00
2023-04-23T10:32:44.831Z,100.00
2023-04-23T10:35:11.408Z,100.00
2023-04-23T10:37:38.587Z,100.00
2023-04-23T10:40:12.824Z,100.00
2023-04-23T10:42:40.632Z,100.00
2023-04-23T10:47:47.069Z,100.00
2023-04-23T10:50:22.474Z,100.00
2023-04-23T10:52:53.324Z,100.00
2023-04-23T10:55:27.767Z,100.00
2023-04-23T10:58:00.888Z,100.00
2023-04-23T11:00:30.681Z,100.00
2023-04-23T11:02:57.383Z,100.00
2023-04-23T11:05:25.786Z,100.00
2023-04-23T11:10:54.188Z,100.00
2023-04-23T11:13:23.676Z,100.00
2023-04-23T11:16:14.009Z,100.00
2023-04-23T11:19:04.972Z,100.00
2023-04-23T11:21:50.269Z,100.00
2023-04-23T11:24:16.698Z,98.88
2023-04-23T11:26:44.020Z,98.43
2023-04-23T11:29:14.437Z,93.42
2023-04-23T11:31:50.659Z,92.61
2023-04-23T11:34:28.610Z,88.85
2023-04-23T11:36:55.149Z,88.70
2023-04-23T11:39:24.174Z,89.81
2023-04-23T11:41:52.301Z,89.13
2023-04-23T11:44:21.963Z,84.93
2023-04-23T11:46:49.638Z,84.22
2023-04-23T11:49:18.578Z,84.25
2023-04-23T11:51:46.018Z,85.43
2023-04-23T11:54:13.672Z,82.14
2023-04-23T11:56:41.164Z,80.50
2023-04-23T11:59:08.314Z,81.36
2023-04-23T12:01:47.051Z,77.67
2023-04-23T12:04:20.977Z,76.72
2023-04-23T12:06:48.822Z,77.44
2023-04-23T12:09:16.034Z,79.85
2023-04-23T12:11:43.597Z,78.09
2023-04-23T12:14:11.107Z,77.12
2023-04-23T12:16:41.299Z,76.20
2023-04-23T12:19:09.747Z,74.89
2023-04-23T12:21:48.073Z,73.47
2023-04-23T12:24:14.867Z,72.23
2023-04-23T12:26:42.234Z,70.84
2023-04-23T12:29:08.698Z,68.67
2023-04-23T12:31:37.300Z,69.63
2023-04-23T12:34:06.087Z,67.25
2023-04-23T12:36:33.738Z,71.96
2023-04-23T12:39:22.131Z,65.49
2023-04-23T12:41:51.282Z,64.61
2023-04-23T12:44:17.691Z,64.01
2023-04-23T12:46:44.417Z,62.91
2023-04-23T12:49:10.853Z,65.18
2023-04-23T12:51:37.605Z,61.33
2023-04-23T12:54:04.295Z,59.26
2023-04-23T12:56:30.706Z,60.56
2023-04-23T12:58:57.495Z,59.91
2023-04-23T13:01:23.895Z,60.04
2023-04-23T13:03:50.940Z,60.16
2023-04-23T13:06:17.433Z,59.45
2023-04-23T13:08:43.813Z,59.03
2023-04-23T13:11:11.217Z,59.28
2023-04-23T13:13:37.674Z,59.46
2023-04-23T13:16:04.180Z,58.95
2023-04-23T13:18:30.577Z,59.44
2023-04-23T13:20:57.499Z,58.13
2023-04-23T13:23:23.885Z,57.36
2023-04-23T13:25:50.301Z,57.57
2023-04-23T13:28:16.714Z,57.91
2023-04-23T13:30:43.117Z,57.30
2023-04-23T13:33:09.551Z,56.44
2023-04-23T13:35:37.715Z,57.21
2023-04-23T13:38:04.757Z,56.93
2023-04-23T13:40:31.168Z,58.16
2023-04-23T13:42:57.582Z,57.79
2023-04-23T13:45:23.979Z,57.40
2023-04-23T13:47:50.697Z,56.92
2023-04-23T13:50:17.176Z,58.42
2023-04-23T13:52:43.706Z,57.46
2023-04-23T13:55:10.355Z,56.29
2023-04-23T13:57:38.125Z,56.01
2023-04-23T14:00:05.391Z,54.66
2023-04-23T14:02:31.903Z,56.33
2023-04-23T14:04:58.611Z,55.63
2023-04-23T14:07:25.063Z,55.36
2023-04-23T14:09:52.791Z,53.19
2023-04-23T14:12:20.039Z,52.36
2023-04-23T14:14:46.450Z,51.28
2023-04-23T14:17:12.834Z,50.71
2023-04-23T14:19:39.265Z,49.67
2023-04-23T14:22:06.156Z,50.28
2023-04-23T14:24:39.405Z,49.69
2023-04-23T14:27:06.085Z,48.37
2023-04-23T14:29:46.183Z,49.27
2023-04-23T14:32:12.925Z,48.48
2023-04-23T14:34:39.595Z,48.98
2023-04-23T14:37:06.199Z,48.14
2023-04-23T14:39:33.930Z,48.28
2023-04-23T14:42:01.155Z,47.48
2023-04-23T14:44:29.083Z,48.35
2023-04-23T14:46:56.878Z,48.02
2023-04-23T14:49:24.001Z,47.49
2023-04-23T14:51:54.144Z,47.66
2023-04-23T14:54:21.584Z,47.71
2023-04-23T14:56:47.981Z,47.15
2023-04-23T14:59:15.035Z,47.34
2023-04-23T15:01:41.535Z,47.72
2023-04-23T15:04:08.086Z,48.81
2023-04-23T15:06:34.520Z,47.96
2023-04-23T15:09:00.929Z,46.91
2023-04-23T15:11:27.337Z,46.69
2023-04-23T15:14:08.315Z,47.13
2023-04-23T15:16:48.262Z,46.10
2023-04-23T15:19:18.112Z,46.50
2023-04-23T15:21:45.085Z,46.95
2023-04-23T15:24:11.502Z,46.69
2023-04-23T15:26:38.272Z,46.68
2023-04-23T15:29:08.440Z,47.33
2023-04-23T15:31:34.904Z,46.56
2023-04-23T15:34:01.541Z,46.79
2023-04-23T15:36:28.013Z,45.65
2023-04-23T15:38:54.501Z,46.25
2023-04-23T15:41:20.964Z,47.10
2023-04-23T15:43:50.223Z,46.35
2023-04-23T15:46:16.671Z,46.69
2023-04-23T15:48:43.936Z,46.69
2023-04-23T15:51:10.454Z,46.51
2023-04-23T15:53:36.864Z,46.72
2023-04-23T15:56:03.526Z,46.79
2023-04-23T15:58:29.946Z,46.93
2023-04-23T16:00:56.411Z,46.77
2023-04-23T16:03:23.011Z,46.62
2023-04-23T16:05:50.973Z,47.15
2023-04-23T16:08:17.432Z,46.46
2023-04-23T16:10:43.899Z,46.24
2023-04-23T16:13:10.534Z,46.55
2023-04-23T16:15:36.987Z,47.02
2023-04-23T16:18:03.521Z,47.23
2023-04-23T16:20:30.563Z,47.43
2023-04-23T16:22:57.010Z,47.55
2023-04-23T16:25:24.116Z,47.78
2023-04-23T16:27:50.673Z,47.76
2023-04-23T16:30:17.092Z,47.84
2023-04-23T16:32:43.592Z,48.68
2023-04-23T16:35:10.341Z,49.45
2023-04-23T16:37:36.739Z,48.91
2023-04-23T16:40:03.363Z,48.90
2023-04-23T16:42:29.795Z,49.41
2023-04-23T16:44:56.267Z,50.85
2023-04-23T16:47:22.742Z,51.14
2023-04-23T16:49:49.180Z,51.25
2023-04-23T16:52:16.082Z,52.09
2023-04-23T16:54:42.761Z,51.75
2023-04-23T16:57:09.359Z,51.09
2023-04-23T16:59:35.893Z,50.81
2023-04-23T17:02:02.377Z,51.63
2023-04-23T17:04:28.967Z,52.91
2023-04-23T17:06:55.654Z,52.26
2023-04-23T17:09:22.147Z,52.56
2023-04-23T17:11:48.554Z,52.29
2023-04-23T17:14:14.964Z,52.06
2023-04-23T17:16:41.717Z,52.75
2023-04-23T17:19:08.302Z,53.19
2023-04-23T17:21:34.757Z,52.79
2023-04-23T17:24:01.266Z,53.22
2023-04-23T17:26:27.732Z,54.06
2023-04-23T17:28:54.230Z,54.32
2023-04-23T17:31:20.924Z,55.67
2023-04-23T17:33:49.469Z,55.32
2023-04-23T17:36:17.163Z,54.48
2023-04-23T17:38:43.710Z,54.82
2023-04-23T17:41:10.350Z,55.30
2023-04-23T17:43:36.779Z,55.74
2023-04-23T17:46:03.528Z,55.75
2023-04-23T17:48:30.221Z,56.61
2023-04-23T17:50:56.684Z,55.58
2023-04-23T17:53:23.140Z,55.71
2023-04-23T17:55:49.542Z,56.78
2023-04-23T17:58:16.484Z,58.36
2023-04-23T18:00:43.154Z,58.90
2023-04-23T18:03:11.737Z,59.05
2023-04-23T18:05:38.408Z,60.20
2023-04-23T18:08:06.830Z,62.79
2023-04-23T18:10:33.383Z,63.29
2023-04-23T18:13:02.833Z,64.45
2023-04-23T18:15:32.168Z,65.64
2023-04-23T18:17:58.961Z,65.53
2023-04-23T18:20:26.565Z,64.66
2023-04-23T18:22:55.912Z,64.49
2023-04-23T18:25:22.474Z,64.37
2023-04-23T18:27:48.990Z,65.17
2023-04-23T18:30:15.577Z,64.30
2023-04-23T18:32:47.020Z,64.27
2023-04-23T18:35:13.711Z,64.65
2023-04-23T18:38:02.638Z,65.44
2023-04-23T18:40:29.081Z,65.67
2023-04-23T18:42:55.896Z,65.58
2023-04-23T18:45:22.295Z,66.17
2023-04-23T18:47:58.131Z,67.10
2023-04-23T18:50:38.189Z,68.84
2023-04-23T18:53:05.011Z,68.69
2023-04-23T18:55:31.468Z,69.03
2023-04-23T18:57:58.642Z,70.04
2023-04-23T19:00:25.453Z,70.32
2023-04-23T19:02:52.274Z,69.76
2023-04-23T19:05:18.796Z,70.60
2023-04-23T19:07:45.280Z,70.55
2023-04-23T19:10:12.133Z,70.71
2023-04-23T19:12:38.808Z,70.77
2023-04-23T19:15:05.922Z,70.79
2023-04-23T19:17:32.554Z,70.60
2023-04-23T19:19:59.008Z,70.21
2023-04-23T19:22:25.772Z,70.60
2023-04-23T19:24:52.236Z,71.30
2023-04-23T19:27:18.645Z,71.03
2023-04-23T19:29:46.437Z,70.55
2023-04-23T19:32:12.892Z,69.87
2023-04-23T19:34:39.315Z,71.66
2023-04-23T19:37:06.610Z,72.29
2023-04-23T19:39:33.050Z,73.34
2023-04-23T19:41:59.452Z,73.16
2023-04-23T19:44:25.864Z,73.39
2023-04-23T19:46:52.403Z,72.66
2023-04-23T19:49:18.869Z,73.53
2023-04-23T19:51:46.161Z,72.66
2023-04-23T19:54:12.581Z,74.26
2023-04-23T19:56:38.983Z,74.78
2023-04-23T19:59:09.491Z,74.88
2023-04-23T20:01:36.247Z,75.11
2023-04-23T20:04:06.965Z,76.24
2023-04-23T20:06:33.569Z,76.41
2023-04-23T20:09:18.704Z,76.31
2023-04-23T20:11:46.189Z,76.22
2023-04-23T20:14:15.428Z,77.02
2023-04-23T20:16:41.942Z,77.07
2023-04-23T20:19:11.825Z,77.03
2023-04-23T20:21:39.402Z,77.02
2023-04-23T20:24:10.258Z,77.08
2023-04-23T20:26:37.773Z,77.36
2023-04-23T20:29:04.678Z,77.48
2023-04-23T20:31:31.333Z,78.37
2023-04-23T20:33:57.973Z,78.07
2023-04-23T20:36:28.666Z,77.89
2023-04-23T20:38:58.046Z,77.82
2023-04-23T20:41:26.429Z,78.38
2023-04-23T20:43:52.933Z,78.51
2023-04-23T20:46:19.397Z,79.35
2023-04-23T20:48:45.885Z,79.95
2023-04-23T20:51:12.308Z,79.32
2023-04-23T20:53:38.730Z,80.01
2023-04-23T20:56:05.136Z,80.25
2023-04-23T20:58:31.586Z,80.61
2023-04-23T21:00:58.042Z,81.24
2023-04-23T21:03:24.576Z,81.43
2023-04-23T21:05:51.089Z,82.59
2023-04-23T21:08:17.526Z,82.35
2023-04-23T21:10:44.458Z,82.03
2023-04-23T21:13:12.117Z,82.53
2023-04-23T21:15:38.863Z,82.46
2023-04-23T21:18:05.876Z,81.81
2023-04-23T21:20:32.467Z,82.34
2023-04-23T21:22:58.883Z,82.53
2023-04-23T21:25:26.693Z,82.92
2023-04-23T21:27:55.169Z,82.83
2023-04-23T21:30:29.870Z,82.55
2023-04-23T21:32:56.335Z,83.23
2023-04-23T21:35:22.820Z,82.51
2023-04-23T21:37:49.227Z,82.21
2023-04-23T21:40:15.694Z,81.98
2023-04-23T21:42:42.190Z,82.36
2023-04-23T21:45:09.005Z,82.45
2023-04-23T21:47:35.559Z,83.03
2023-04-23T21:50:02.121Z,83.41
2023-04-23T21:52:28.710Z,82.76
2023-04-23T21:54:55.154Z,83.28
2023-04-23T21:57:21.585Z,82.19
2023-04-23T21:59:48.022Z,81.93
2023-04-23T22:02:14.799Z,81.55
2023-04-23T22:04:41.254Z,81.63
2023-04-23T22:07:12.378Z,81.86
2023-04-23T22:09:39.291Z,81.91
2023-04-23T22:12:05.848Z,81.30
2023-04-23T22:14:32.281Z,81.41
2023-04-23T22:16:58.972Z,81.64
2023-04-23T22:19:25.929Z,82.72
2023-04-23T22:21:52.346Z,82.77
2023-04-23T22:24:18.775Z,83.30
2023-04-23T22:26:45.688Z,82.98
2023-04-23T22:29:12.178Z,82.47
2023-04-23T22:31:38.601Z,82.27
2023-04-23T22:34:05.078Z,82.12
2023-04-23T22:36:32.583Z,82.87
2023-04-23T22:38:59.010Z,82.96
2023-04-23T22:41:25.824Z,83.33
2023-04-23T22:43:54.087Z,83.35
2023-04-23T22:46:20.538Z,83.78
2023-04-23T22:48:47.451Z,84.12
2023-04-23T22:51:14.157Z,83.84
2023-04-23T22:53:40.790Z,83.97
2023-04-23T22:56:07.526Z,84.96
2023-04-23T22:58:34.077Z,85.32
2023-04-23T23:01:00.504Z,86.22
2023-04-23T23:03:27.263Z,86.00
2023-04-23T23:05:53.823Z,85.26
2023-04-23T23:08:20.227Z,85.59
2023-04-23T23:10:46.634Z,86.48
2023-04-23T23:13:13.060Z,86.08
2023-04-23T23:15:39.538Z,87.01
2023-04-23T23:18:06.157Z,87.50
2023-04-23T23:20:32.666Z,87.75
2023-04-23T23:22:59.081Z,88.56
2023-04-23T23:25:25.625Z,87.08
2023-04-23T23:27:52.029Z,87.93
2023-04-23T23:30:18.464Z,87.49
2023-04-23T23:32:46.052Z,87.44
2023-04-23T23:35:12.604Z,87.18
2023-04-23T23:37:39.027Z,88.47
2023-04-23T23:40:06.081Z,87.87
2023-04-23T23:42:32.493Z,88.54
2023-04-23T23:44:58.898Z,88.16
2023-04-23T23:47:25.387Z,88.36
2023-04-23T23:49:51.821Z,89.31
2023-04-23T23:52:18.233Z,89.31
2023-04-23T23:54:44.640Z,89.30
2023-04-23T23:57:11.863Z,90.22
2023-04-23T23:59:38.516Z,89.64
